Altamont, Illinois
Current Conditions -  °F | °C
As of 9:35 AM on Saturday 20 Dec 2014 (Local Time) from K1H2 Reporting Station
Overcast Overcast  
Wind Chill: 27°   Ceiling: 6500
Heat Index: 32°   Visibility: 10mi
Dew Point: 26°   Wind: 6mph
Humidity: 77%   Direction: 120°ESE
Pressure: 30.33"   Gusts: NA
Location:  39.06°N, 88.75°W
Report Text: K1H2 201535Z AUTO 12005KT 10SM OVC065 00/M03 A3033 RMK AO2 T00021034
Loading
Personal Weather Stations






























Interactive Weather Map New forecast layout! Learn more

10-Day Weather Forecast

Advertisements
Track Severe Weather on mobile